Mc Ewen, Tennessee
Current Conditions -  °F | °C
As of 11:52 AM on Sunday 21 Dec 2014 (Local Time) from KCKV Reporting Station
Clear Clear  
Wind Chill: 43°   Ceiling: Unl
Heat Index: 46°   Visibility: 10mi
Dew Point: 31°   Wind: 6mph
Humidity: 56%   Direction: 110°ESE
Pressure: 30.17"   Gusts: NA
Location:  36.1254°N, 87.6388°W
Report Text: KCKV 211752Z AUTO 11005KT 10SM CLR 08/M01 A3017 RMK AO2 SLP222 I6000 T00781006 10078 21050 58024
Loading
Personal Weather Stations






























Interactive Weather Map New forecast layout! Learn more

10-Day Weather Forecast

Advertisements
Track Severe Weather on mobile